Time;durP1;ratioP1;P1;durP2;ratioP2;P2;SDS_P1;SDS_P2;PMS_P1;PMS_P2;Temp;Humidity;BMP_temperature;BMP_pressure;BME280_temperature;BME280_humidity;BME280_pressure;Samples;Min_cycle;Max_cycle;Signal;HPM_P1;HPM_P2
2021/05/01 00:01:17;;;;;;;14.53;13.33;;;;;;;12.15;72.91;95215.72;5010285;28;20726;-86
2021/05/01 00:03:43;;;;;;;15.10;13.80;;;;;;;12.13;73.21;95209.16;5014434;28;20282;-86
2021/05/01 00:06:09;;;;;;;15.37;13.87;;;;;;;12.14;72.87;95210.75;4999872;28;20202;-85
2021/05/01 00:08:35;;;;;;;14.53;13.23;;;;;;;12.10;73.08;95212.94;5001135;28;20221;-83
2021/05/01 00:11:02;;;;;;;15.33;14.03;;;;;;;11.97;74.08;95221.41;5011447;28;20606;-85
2021/05/01 00:13:29;;;;;;;14.97;13.60;;;;;;;12.02;73.46;95211.31;4994554;28;20230;-85
2021/05/01 00:15:56;;;;;;;14.47;13.27;;;;;;;12.04;73.56;95209.34;5005565;28;20610;-86
2021/05/01 00:18:22;;;;;;;15.10;13.80;;;;;;;12.04;74.11;95193.06;5014211;28;20226;-86
2021/05/01 00:20:48;;;;;;;14.60;13.37;;;;;;;12.13;73.57;95176.41;5003871;28;20222;-86
2021/05/01 00:23:14;;;;;;;16.23;14.83;;;;;;;12.01;74.45;95178.78;4995114;28;20199;-85
2021/05/01 00:25:40;;;;;;;16.63;15.03;;;;;;;11.96;75.58;95182.91;5003126;28;20206;-86
2021/05/01 00:28:07;;;;;;;15.10;13.67;;;;;;;11.93;75.13;95191.84;5014340;28;20229;-85
2021/05/01 00:30:33;;;;;;;15.20;13.87;;;;;;;11.94;75.51;95193.44;5008383;28;20223;-85
2021/05/01 00:32:59;;;;;;;15.53;14.13;;;;;;;11.98;75.40;95193.84;4993834;28;20213;-85
2021/05/01 00:35:27;;;;;;;15.50;14.10;;;;;;;12.06;74.17;95191.88;4996065;28;20298;-85
2021/05/01 00:37:57;;;;;;;15.77;14.37;;;;;;;12.04;74.59;95182.75;4994797;28;20212;-86
2021/05/01 00:40:23;;;;;;;15.23;13.93;;;;;;;11.93;76.13;95183.31;5004808;28;20226;-85
2021/05/01 00:42:49;;;;;;;15.63;14.23;;;;;;;11.98;75.88;95186.09;5013275;28;20206;-85
2021/05/01 00:45:16;;;;;;;15.47;14.07;;;;;;;12.00;75.98;95191.84;5004164;28;20718;-85
2021/05/01 00:47:42;;;;;;;16.03;14.43;;;;;;;12.08;74.97;95192.50;4993895;28;20806;-86
2021/05/01 00:50:09;;;;;;;16.60;15.10;;;;;;;12.17;74.38;95197.47;5000926;28;20207;-86
2021/05/01 00:52:38;;;;;;;16.23;14.70;;;;;;;12.13;74.70;95196.25;5013272;28;20198;-85
2021/05/01 00:55:05;;;;;;;16.77;15.27;;;;;;;12.00;74.82;95192.66;5005554;28;20223;-85
2021/05/01 00:57:31;;;;;;;16.17;14.73;;;;;;;11.68;76.25;95185.59;4993805;28;20207;-86
2021/05/01 00:59:57;;;;;;;16.13;14.70;;;;;;;11.64;76.83;95174.84;4993472;28;20214;-85
2021/05/01 01:02:27;;;;;;;18.10;16.40;;;;;;;11.53;78.50;95174.63;4992936;28;20294;-83
2021/05/01 01:04:54;;;;;;;16.80;15.30;;;;;;;11.55;77.66;95168.25;4974009;28;20628;-84
2021/05/01 01:07:21;;;;;;;16.23;14.80;;;;;;;11.56;77.86;95162.13;4981449;28;20683;-85
2021/05/01 01:09:48;;;;;;;16.67;15.17;;;;;;;11.52;78.23;95160.94;4992332;28;20560;-85
2021/05/01 01:12:15;;;;;;;17.50;15.90;;;;;;;11.63;77.18;95162.16;4997063;28;20258;-84
2021/05/01 01:14:41;;;;;;;17.63;16.03;;;;;;;11.64;77.63;95164.53;5012535;28;20198;-83
2021/05/01 01:17:10;;;;;;;18.37;16.67;;;;;;;11.69;76.74;95162.19;5009355;28;20196;-85
2021/05/01 01:19:38;;;;;;;16.47;14.97;;;;;;;11.82;76.20;95166.59;4992751;28;20209;-85
2021/05/01 01:22:12;;;;;;;17.83;16.13;;;;;;;11.87;75.30;95166.84;4999629;28;20227;-85
2021/05/01 01:24:38;;;;;;;17.13;15.53;;;;;;;11.96;74.50;95177.75;5012708;28;20570;-85
2021/05/01 01:27:07;;;;;;;17.00;15.50;;;;;;;11.94;74.08;95174.56;5006262;28;20200;-85
2021/05/01 01:29:34;;;;;;;17.97;16.37;;;;;;;11.81;73.90;95170.19;4998525;28;20195;-85
2021/05/01 01:32:00;;;;;;;19.70;17.80;;;;;;;11.76;74.24;95178.50;5006851;28;20227;-85
2021/05/01 01:34:26;;;;;;;19.17;17.40;;;;;;;11.65;74.43;95173.06;4996922;28;20562;-85
2021/05/01 01:36:52;;;;;;;19.23;17.40;;;;;;;11.82;73.58;95184.66;5001913;28;20217;-86
2021/05/01 01:39:21;;;;;;;19.87;18.07;;;;;;;11.79;73.49;95189.41;4994748;28;20203;-85
2021/05/01 01:41:47;;;;;;;19.10;17.30;;;;;;;11.70;73.18;95188.78;5012799;28;20226;-85
2021/05/01 01:44:13;;;;;;;19.17;17.47;;;;;;;11.75;72.36;95186.38;5011881;28;20249;-85
2021/05/01 01:46:39;;;;;;;20.03;18.20;;;;;;;11.73;72.50;95185.81;4996253;28;20199;-85
2021/05/01 01:49:05;;;;;;;19.57;17.77;;;;;;;11.79;71.98;95177.31;5012681;28;20203;-85
2021/05/01 01:51:31;;;;;;;18.93;17.23;;;;;;;11.83;71.75;95190.63;4994068;28;20600;-86
2021/05/01 01:53:57;;;;;;;19.23;17.43;;;;;;;11.85;71.36;95179.13;4994055;28;20199;-86
2021/05/01 01:56:26;;;;;;;21.33;19.30;;;;;;;11.54;73.21;95186.53;4993462;28;20318;-86
2021/05/01 01:58:52;;;;;;;21.03;19.07;;;;;;;11.39;74.34;95184.84;4993367;28;20199;-86
2021/05/01 02:01:18;;;;;;;20.67;18.67;;;;;;;11.27;75.36;95186.38;4993176;28;20223;-86
2021/05/01 02:03:44;;;;;;;21.27;19.27;;;;;;;11.21;75.80;95182.00;4994126;28;20208;-86
2021/05/01 02:06:10;;;;;;;21.47;19.43;;;;;;;11.15;77.45;95184.53;4994846;28;20206;-85
2021/05/01 02:08:36;;;;;;;21.27;19.37;;;;;;;11.24;77.79;95178.25;5010112;28;20215;-86
2021/05/01 02:11:02;;;;;;;21.13;19.13;;;;;;;11.43;76.76;95178.34;5012271;28;20784;-86
2021/05/01 02:13:29;;;;;;;20.67;18.73;;;;;;;11.63;76.17;95186.16;4997289;28;20204;-86
2021/05/01 02:15:56;;;;;;;21.63;19.53;;;;;;;11.73;75.79;95190.97;4992687;28;20223;-85
2021/05/01 02:18:22;;;;;;;21.07;19.17;;;;;;;11.79;75.17;95187.63;4993335;28;20206;-85
2021/05/01 02:20:48;;;;;;;20.57;18.57;;;;;;;11.89;74.21;95180.34;4991967;28;20227;-85
2021/05/01 02:23:14;;;;;;;21.07;19.17;;;;;;;11.87;74.14;95176.34;5004051;28;20195;-86
2021/05/01 02:25:40;;;;;;;21.60;19.40;;;;;;;11.76;74.43;95170.75;4998096;28;20206;-85
2021/05/01 02:28:06;;;;;;;21.70;19.50;;;;;;;11.71;75.51;95162.00;5002510;28;20198;-85
2021/05/01 02:30:33;;;;;;;21.00;19.03;;;;;;;11.77;75.32;95164.59;5011616;28;20309;-85
2021/05/01 02:32:59;;;;;;;21.57;19.57;;;;;;;11.66;76.04;95172.88;4998740;28;20207;-84
2021/05/01 02:35:29;;;;;;;22.90;20.70;;;;;;;11.70;75.80;95168.13;4992904;28;20314;-86
2021/05/01 02:37:55;;;;;;;20.63;18.73;;;;;;;11.79;75.91;95169.56;5004035;28;20202;-85
2021/05/01 02:40:23;;;;;;;21.97;19.90;;;;;;;11.85;75.24;95161.06;5010960;28;20215;-86
2021/05/01 02:42:50;;;;;;;21.80;19.80;;;;;;;11.94;74.95;95170.22;5001017;28;20273;-84
2021/05/01 02:45:18;;;;;;;21.63;19.63;;;;;;;11.86;75.50;95167.81;4991661;28;20734;-86
2021/05/01 02:47:45;;;;;;;22.23;20.03;;;;;;;11.89;75.19;95164.06;5007635;28;20195;-86
2021/05/01 02:50:13;;;;;;;21.53;19.47;;;;;;;11.85;75.70;95162.84;4996166;28;20412;-84
2021/05/01 02:52:39;;;;;;;21.83;19.67;;;;;;;11.97;75.08;95158.69;4991959;28;20203;-86
2021/05/01 02:55:08;;;;;;;22.13;20.03;;;;;;;11.89;75.46;95172.59;4996648;28;20214;-84
2021/05/01 02:57:34;;;;;;;21.27;19.30;;;;;;;11.88;75.24;95170.22;4992705;28;20327;-85
2021/05/01 03:00:02;;;;;;;22.20;20.07;;;;;;;11.92;74.56;95179.94;5002012;28;20238;-83
2021/05/01 03:02:28;;;;;;;22.07;19.90;;;;;;;11.88;74.90;95186.47;5010798;28;20245;-85
2021/05/01 03:04:55;;;;;;;23.43;21.13;;;;;;;11.71;75.36;95187.78;5000382;28;20274;-84
2021/05/01 03:07:21;;;;;;;22.40;20.30;;;;;;;11.72;75.37;95174.69;4990844;28;20204;-83
2021/05/01 03:09:47;;;;;;;22.50;20.40;;;;;;;11.67;76.15;95169.31;4997933;28;20194;-84
2021/05/01 03:12:13;;;;;;;23.17;20.97;;;;;;;11.62;78.13;95163.94;4999638;28;20238;-83
2021/05/01 03:14:39;;;;;;;22.63;20.47;;;;;;;11.67;76.58;95150.47;4990850;28;20207;-84
2021/05/01 03:17:05;;;;;;;23.97;21.63;;;;;;;11.65;76.92;95142.13;4991362;28;20291;-85
2021/05/01 03:19:31;;;;;;;23.43;21.23;;;;;;;11.63;76.96;95133.78;5002656;28;20199;-84
2021/05/01 03:21:58;;;;;;;22.73;20.57;;;;;;;11.60;76.80;95134.16;5011118;28;20218;-86
2021/05/01 03:24:24;;;;;;;23.10;20.90;;;;;;;11.59;75.98;95142.91;5001098;28;20200;-85
2021/05/01 03:26:50;;;;;;;23.83;21.50;;;;;;;11.55;76.78;95128.78;5010259;28;20199;-84
2021/05/01 03:29:16;;;;;;;24.17;21.87;;;;;;;11.56;76.37;95133.75;4995664;28;20216;-86
2021/05/01 03:31:42;;;;;;;24.83;22.40;;;;;;;11.41;78.02;95133.13;5003533;28;20248;-84
2021/05/01 03:34:08;;;;;;;23.97;21.67;;;;;;;11.43;77.23;95131.94;5009798;28;20202;-84
2021/05/01 03:36:34;;;;;;;24.17;21.77;;;;;;;11.23;78.70;95128.47;4998042;28;20242;-83
2021/05/01 03:39:01;;;;;;;25.17;22.67;;;;;;;11.22;78.62;95116.59;5009869;28;20230;-85
2021/05/01 03:41:27;;;;;;;24.87;22.40;;;;;;;11.36;77.93;95115.63;5001485;28;20734;-85
2021/05/01 03:43:53;;;;;;;24.10;21.70;;;;;;;11.45;77.52;95116.28;5008252;28;20199;-85
2021/05/01 03:46:19;;;;;;;24.13;21.77;;;;;;;11.59;77.44;95106.78;5002579;28;20239;-85
2021/05/01 03:48:45;;;;;;;24.43;22.13;;;;;;;11.54;77.37;95115.13;4990490;28;20235;-85
2021/05/01 03:51:11;;;;;;;25.20;22.80;;;;;;;11.35;78.28;95102.97;5008703;28;20219;-85
2021/05/01 03:53:37;;;;;;;24.93;22.43;;;;;;;11.29;78.19;95109.69;5008378;28;20195;-86
2021/05/01 03:56:04;;;;;;;25.63;23.13;;;;;;;11.38;77.82;95097.41;5000855;28;20219;-85
2021/05/01 03:58:30;;;;;;;24.77;22.27;;;;;;;11.29;77.67;95101.16;5010250;28;20214;-85
2021/05/01 04:00:56;;;;;;;24.30;22.00;;;;;;;11.30;77.77;95100.97;5006657;28;20228;-85
2021/05/01 04:03:22;;;;;;;26.20;23.50;;;;;;;11.23;78.38;95102.72;5005154;28;20247;-85
2021/05/01 04:05:48;;;;;;;26.00;23.33;;;;;;;11.26;78.53;95096.38;4996404;28;20278;-84
2021/05/01 04:08:14;;;;;;;24.60;22.27;;;;;;;11.40;77.57;95095.44;5013551;28;20203;-85
2021/05/01 04:10:40;;;;;;;25.00;22.60;;;;;;;11.51;76.62;95097.47;5010970;28;20250;-85
2021/05/01 04:13:06;;;;;;;25.57;23.07;;;;;;;11.46;76.46;95096.47;4993968;28;20203;-85
2021/05/01 04:15:32;;;;;;;24.53;22.03;;;;;;;11.54;76.08;95089.34;4993571;28;20635;-85
2021/05/01 04:17:58;;;;;;;24.87;22.47;;;;;;;11.65;76.21;95099.09;4994109;28;20227;-82
2021/05/01 04:20:24;;;;;;;25.40;22.90;;;;;;;11.51;76.61;95091.53;4994404;28;20779;-85
2021/05/01 04:22:50;;;;;;;25.30;22.70;;;;;;;11.53;76.49;95094.69;4993973;28;20706;-86
2021/05/01 04:25:16;;;;;;;24.70;22.27;;;;;;;11.64;76.37;95104.44;4996528;28;20226;-85
2021/05/01 04:27:42;;;;;;;24.83;22.40;;;;;;;11.60;76.63;95113.53;5013001;28;20290;-85
2021/05/01 04:30:13;;;;;;;25.70;23.20;;;;;;;11.57;76.50;95116.50;5002578;28;20200;-85
2021/05/01 04:32:39;;;;;;;26.73;24.13;;;;;;;11.32;78.70;95109.31;5012993;28;20202;-85
2021/05/01 04:35:07;;;;;;;26.90;24.13;;;;;;;11.29;78.56;95117.41;5003642;28;20199;-84
2021/05/01 04:37:33;;;;;;;27.97;25.17;;;;;;;11.17;78.56;95120.72;4993447;28;20253;-85
2021/05/01 04:39:59;;;;;;;27.70;24.90;;;;;;;11.16;78.84;95119.91;4996199;28;20204;-85
2021/05/01 04:42:25;;;;;;;27.20;24.50;;;;;;;10.99;79.32;95114.28;5013209;28;20306;-85
2021/05/01 04:44:51;;;;;;;26.57;23.87;;;;;;;11.07;79.40;95124.44;5007366;28;20666;-85
2021/05/01 04:47:18;;;;;;;29.00;26.10;;;;;;;11.20;78.98;95134.00;4993535;28;20207;-86
2021/05/01 04:49:44;;;;;;;27.60;24.80;;;;;;;11.36;78.29;95136.25;5003351;28;20195;-85
2021/05/01 04:52:10;;;;;;;26.33;23.70;;;;;;;11.24;79.86;95131.84;5004968;28;20220;-85
2021/05/01 04:54:36;;;;;;;27.37;24.47;;;;;;;11.28;79.11;95130.50;4993178;28;20257;-85
2021/05/01 04:57:02;;;;;;;27.63;24.87;;;;;;;11.33;78.64;95135.88;4998339;28;20250;-85
2021/05/01 04:59:28;;;;;;;27.70;24.93;;;;;;;11.39;77.88;95137.66;5012432;28;20211;-86
2021/05/01 05:01:54;;;;;;;27.00;24.40;;;;;;;11.42;78.64;95142.44;5012362;28;20819;-85
2021/05/01 05:04:21;;;;;;;27.37;24.57;;;;;;;11.46;78.18;95142.84;5012928;28;20199;-85
2021/05/01 05:06:47;;;;;;;26.70;24.00;;;;;;;11.23;78.48;95133.63;5012590;28;20261;-85
2021/05/01 05:09:13;;;;;;;27.57;24.97;;;;;;;11.26;79.06;95137.63;5012051;28;20334;-85
2021/05/01 05:11:39;;;;;;;26.83;24.07;;;;;;;11.39;78.90;95127.34;5011064;28;20317;-85
2021/05/01 05:14:05;;;;;;;43.17;38.57;;;;;;;11.46;79.34;95117.88;5011885;28;20218;-85
2021/05/01 05:16:31;;;;;;;34.67;31.07;;;;;;;11.63;78.52;95133.78;5011846;28;20222;-85
2021/05/01 05:18:57;;;;;;;27.17;24.37;;;;;;;11.63;77.83;95126.84;5012704;28;20285;-85
2021/05/01 05:21:26;;;;;;;26.13;23.63;;;;;;;11.69;78.04;95117.56;5012586;28;20229;-85
2021/05/01 05:23:52;;;;;;;25.90;23.40;;;;;;;11.84;76.77;95104.50;5012403;28;20674;-84
2021/05/01 05:26:22;;;;;;;26.60;23.80;;;;;;;11.98;77.01;95109.50;5013464;28;20350;-85
2021/05/01 05:28:48;;;;;;;26.80;24.10;;;;;;;12.09;76.16;95108.94;5012135;28;20678;-85
2021/05/01 05:31:14;;;;;;;26.17;23.57;;;;;;;12.06;76.49;95111.91;5011862;28;20257;-85
2021/05/01 05:33:40;;;;;;;26.60;23.93;;;;;;;12.18;76.58;95108.72;5011945;28;20666;-85
2021/05/01 05:36:07;;;;;;;26.40;23.77;;;;;;;12.16;76.41;95103.75;5011917;28;20300;-84
2021/05/01 05:38:33;;;;;;;26.07;23.57;;;;;;;12.21;76.84;95110.91;5012191;28;20194;-85
2021/05/01 05:40:59;;;;;;;25.47;22.97;;;;;;;12.34;76.60;95103.94;5011897;28;20219;-85
2021/05/01 05:43:27;;;;;;;25.87;23.27;;;;;;;12.41;75.01;95094.44;5011452;28;20202;-85
2021/05/01 05:45:53;;;;;;;25.23;22.73;;;;;;;12.38;75.53;95087.06;5011658;28;20202;-85
2021/05/01 05:48:21;;;;;;;26.33;23.80;;;;;;;12.23;77.46;95096.03;5012258;28;20214;-86
2021/05/01 05:50:47;;;;;;;26.80;24.20;;;;;;;12.31;75.67;95088.09;5011861;28;20219;-85
2021/05/01 05:53:13;;;;;;;25.60;23.20;;;;;;;12.42;75.54;95085.69;5011735;28;20237;-85
2021/05/01 05:55:40;;;;;;;26.83;24.30;;;;;;;12.45;75.84;95077.56;4999360;28;20703;-86
2021/05/01 05:58:06;;;;;;;26.17;23.57;;;;;;;12.52;76.35;95068.97;4992055;28;20207;-85
2021/05/01 06:00:32;;;;;;;26.50;24.00;;;;;;;12.67;75.30;95072.16;4991469;28;20278;-85
2021/05/01 06:03:00;;;;;;;25.37;22.97;;;;;;;12.70;75.49;95077.69;4991829;28;20427;-85
2021/05/01 06:05:28;;;;;;;25.40;22.90;;;;;;;12.73;74.28;95066.97;4991780;28;20210;-85
2021/05/01 06:07:58;;;;;;;25.30;22.80;;;;;;;12.75;74.27;95072.72;4991893;28;20295;-85
2021/05/01 06:10:25;;;;;;;24.47;22.07;;;;;;;12.92;73.73;95056.78;4991398;28;20242;-85
2021/05/01 06:12:52;;;;;;;24.30;21.97;;;;;;;13.05;72.97;95054.97;4992754;28;20230;-85
2021/05/01 06:15:19;;;;;;;26.23;23.73;;;;;;;13.14;72.59;95048.56;4992223;28;20203;-85
2021/05/01 06:17:48;;;;;;;24.33;22.03;;;;;;;12.92;74.15;95054.19;4992206;28;20291;-85
2021/05/01 06:20:15;;;;;;;26.27;23.67;;;;;;;12.90;73.69;95046.66;4991432;28;20211;-85
2021/05/01 06:22:42;;;;;;;26.03;23.53;;;;;;;12.66;73.87;95032.63;4991363;28;20234;-85
2021/05/01 06:25:10;;;;;;;24.73;22.23;;;;;;;12.77;73.77;95034.56;4991651;28;20230;-84
2021/05/01 06:27:36;;;;;;;24.07;21.60;;;;;;;13.02;73.62;95046.81;4991535;28;20230;-85
2021/05/01 06:30:18;;;;;;;25.00;22.60;;;;;;;13.09;70.75;95043.19;4991570;28;20207;-85
2021/05/01 06:32:45;;;;;;;23.13;20.90;;;;;;;12.83;72.50;95035.56;4991002;28;20207;-85
2021/05/01 06:35:11;;;;;;;23.23;21.00;;;;;;;12.71;71.83;95037.97;4991981;28;20633;-86
2021/05/01 06:37:39;;;;;;;24.20;21.87;;;;;;;12.82;72.87;95035.75;4991388;28;20253;-85
2021/05/01 06:40:08;;;;;;;23.07;20.90;;;;;;;13.11;72.39;95045.56;4991560;28;20203;-83
2021/05/01 06:42:39;;;;;;;23.47;21.17;;;;;;;13.35;71.44;95050.09;4991933;28;20215;-84
2021/05/01 06:45:10;;;;;;;22.23;20.07;;;;;;;13.40;70.55;95039.13;4991642;28;20199;-85
2021/05/01 06:47:41;;;;;;;22.60;20.40;;;;;;;13.57;70.10;95045.41;4992436;28;20196;-84
2021/05/01 06:50:10;;;;;;;23.00;20.57;;;;;;;13.74;69.96;95056.03;4991493;28;20262;-85
2021/05/01 06:52:38;;;;;;;22.33;20.27;;;;;;;13.40;70.83;95068.38;4991549;28;20318;-85
2021/05/01 06:55:06;;;;;;;22.50;20.33;;;;;;;13.52;70.81;95065.91;4992150;28;20199;-85
2021/05/01 06:57:32;;;;;;;21.40;19.20;;;;;;;13.53;69.27;95067.50;4991890;28;20251;-85
2021/05/01 06:59:59;;;;;;;22.17;20.07;;;;;;;13.38;68.77;95070.34;4991521;28;20203;-85
2021/05/01 07:02:28;;;;;;;20.67;18.67;;;;;;;13.44;69.69;95069.53;4991312;28;20277;-85
2021/05/01 07:04:57;;;;;;;20.87;18.77;;;;;;;13.60;69.53;95067.47;4991845;28;20579;-85
2021/05/01 07:07:24;;;;;;;19.97;18.07;;;;;;;13.69;69.42;95073.97;4991740;28;20696;-85
2021/05/01 07:09:51;;;;;;;21.17;19.17;;;;;;;13.71;69.52;95070.19;4990841;28;20223;-85
2021/05/01 07:12:19;;;;;;;20.10;18.20;;;;;;;13.70;69.23;95076.34;4991192;28;20228;-85
2021/05/01 07:14:45;;;;;;;20.13;18.13;;;;;;;13.75;68.83;95065.38;4991819;28;20298;-84
2021/05/01 07:17:12;;;;;;;21.13;19.10;;;;;;;13.81;68.76;95056.78;4991732;28;20219;-85
2021/05/01 07:19:39;;;;;;;20.53;18.57;;;;;;;13.88;68.50;95049.75;4991857;28;20231;-85
2021/05/01 07:22:07;;;;;;;20.27;18.27;;;;;;;13.98;67.61;95047.53;4992104;28;20247;-84
2021/05/01 07:24:33;;;;;;;18.83;17.13;;;;;;;14.00;66.96;95050.69;4992403;28;20199;-86
2021/05/01 07:27:00;;;;;;;19.97;18.07;;;;;;;14.03;67.52;95063.22;4992026;28;20203;-85
2021/05/01 07:29:34;;;;;;;21.67;19.60;;;;;;;13.90;67.44;95065.88;4991153;28;20199;-86
2021/05/01 07:32:03;;;;;;;20.00;18.20;;;;;;;13.91;67.98;95048.56;4991195;28;20359;-86
2021/05/01 07:34:29;;;;;;;20.20;18.40;;;;;;;13.94;68.16;95045.56;4991908;28;20242;-85
2021/05/01 07:37:01;;;;;;;20.47;18.57;;;;;;;13.82;67.60;95035.88;4995475;28;20231;-85
2021/05/01 07:39:30;;;;;;;24.90;22.40;;;;;;;13.83;67.75;95045.25;4995114;28;20718;-86
2021/05/01 07:42:01;;;;;;;33.30;30.03;;;;;;;13.54;66.70;95039.84;4994927;28;20224;-84
2021/05/01 07:44:30;;;;;;;22.07;19.80;;;;;;;13.55;67.81;95031.88;4994615;28;20199;-85
2021/05/01 07:46:58;;;;;;;19.47;17.60;;;;;;;13.70;67.61;95019.44;4995435;28;20199;-85
2021/05/01 07:49:24;;;;;;;19.00;17.20;;;;;;;13.71;67.70;95018.44;4994867;28;20204;-85
2021/05/01 07:51:51;;;;;;;19.77;17.87;;;;;;;13.51;68.67;95025.53;4995516;28;20229;-85
2021/05/01 07:54:17;;;;;;;19.47;17.63;;;;;;;13.61;68.60;95012.16;4995303;28;20692;-85
2021/05/01 07:56:44;;;;;;;16.87;15.20;;;;;;;13.69;66.53;95011.88;4994948;28;20742;-85
2021/05/01 07:59:10;;;;;;;17.00;15.30;;;;;;;13.83;66.16;95003.03;4994795;28;20286;-86
2021/05/01 08:01:37;;;;;;;16.50;14.93;;;;;;;14.05;66.69;94993.09;4995105;28;20215;-85
2021/05/01 08:04:03;;;;;;;16.10;14.60;;;;;;;14.23;67.35;94993.16;4995200;28;20694;-85
2021/05/01 08:06:29;;;;;;;17.00;15.40;;;;;;;14.33;66.72;94983.09;4995154;28;20875;-85
2021/05/01 08:08:56;;;;;;;17.43;15.83;;;;;;;14.27;65.63;94978.75;4995067;28;20218;-85
2021/05/01 08:11:23;;;;;;;17.43;15.90;;;;;;;14.31;66.46;94977.31;4993515;28;20286;-86
2021/05/01 08:13:49;;;;;;;16.67;15.17;;;;;;;14.30;66.33;94972.34;4993491;28;20230;-86
2021/05/01 08:16:16;;;;;;;23.90;21.53;;;;;;;14.39;65.40;94969.28;4993596;28;20224;-85
2021/05/01 08:18:45;;;;;;;25.10;22.70;;;;;;;14.37;65.65;94960.16;4993731;28;20207;-84
2021/05/01 08:21:11;;;;;;;16.33;14.77;;;;;;;14.32;64.87;94962.59;4992853;28;20226;-85
2021/05/01 08:23:37;;;;;;;16.27;14.77;;;;;;;14.38;64.75;94961.72;4993304;28;20389;-85
2021/05/01 08:26:08;;;;;;;15.40;13.90;;;;;;;14.48;64.35;94954.28;4992987;28;20326;-83
2021/05/01 08:28:34;;;;;;;15.27;13.93;;;;;;;14.58;65.02;94954.56;4993070;28;20238;-86
2021/05/01 08:31:01;;;;;;;14.20;12.90;;;;;;;14.50;64.22;94947.88;4992327;28;20251;-84
2021/05/01 08:33:29;;;;;;;14.80;13.43;;;;;;;14.63;64.09;94948.72;4992730;28;20203;-85
2021/05/01 08:35:56;;;;;;;14.67;13.17;;;;;;;14.93;64.57;94957.34;4992503;28;20344;-85
2021/05/01 08:38:22;;;;;;;15.23;13.83;;;;;;;15.00;62.79;94960.66;4992748;28;20212;-83
2021/05/01 08:40:49;;;;;;;13.53;12.30;;;;;;;15.19;62.67;94961.41;4992944;28;20897;-85
2021/05/01 08:43:15;;;;;;;14.53;13.23;;;;;;;14.99;62.26;94971.25;4993528;28;20215;-86
2021/05/01 08:45:44;;;;;;;13.53;12.33;;;;;;;15.12;62.43;94971.06;4993067;28;20744;-85
2021/05/01 08:48:11;;;;;;;13.93;12.63;;;;;;;14.99;63.67;94972.03;4991635;28;20250;-85
2021/05/01 08:50:41;;;;;;;12.90;11.70;;;;;;;14.90;62.95;94975.91;4992351;28;20227;-86
2021/05/01 08:53:08;;;;;;;11.20;10.23;;;;;;;14.78;62.25;94977.66;4992397;28;20199;-84
2021/05/01 08:55:37;;;;;;;34.80;31.20;;;;;;;14.59;62.31;94986.47;4992687;28;20203;-85
2021/05/01 08:58:07;;;;;;;34.87;31.37;;;;;;;14.54;63.18;94984.50;4992787;28;20249;-85
2021/05/01 09:00:34;;;;;;;11.90;10.90;;;;;;;14.56;62.90;94989.47;4992512;28;20235;-85
2021/05/01 09:03:05;;;;;;;11.90;10.83;;;;;;;14.57;63.70;94994.44;4994093;28;20251;-84
2021/05/01 09:05:33;;;;;;;10.50;9.57;;;;;;;14.62;62.86;94984.22;4995104;28;20207;-85
2021/05/01 09:07:59;;;;;;;10.80;9.80;;;;;;;14.58;62.26;94983.06;4992563;28;20206;-85
2021/05/01 09:10:27;;;;;;;11.27;10.27;;;;;;;14.55;63.00;94972.34;4972543;28;558404;-86
2021/05/01 09:12:53;;;;;;;11.47;10.37;;;;;;;14.65;63.82;94970.03;4992965;28;20199;-86
2021/05/01 09:15:22;;;;;;;11.77;10.60;;;;;;;14.67;62.05;94963.63;4993378;28;20204;-85
2021/05/01 09:17:57;;;;;;;11.27;10.27;;;;;;;14.79;62.83;94966.28;4993189;28;20219;-85
2021/05/01 09:20:23;;;;;;;11.40;10.40;;;;;;;14.54;62.62;94966.38;4992568;28;20610;-85
2021/05/01 09:22:58;;;;;;;11.83;10.80;;;;;;;14.34;62.29;94963.16;4993272;28;20679;-86
2021/05/01 09:25:26;;;;;;;18.57;16.77;;;;;;;14.43;63.75;94960.09;4993857;28;20210;-85
2021/05/01 09:28:10;;;;;;;36.00;32.30;;;;;;;14.59;64.12;94958.75;4993708;28;20192;-85
2021/05/01 09:30:38;;;;;;;15.07;13.73;;;;;;;14.71;64.21;94956.22;4992934;28;20219;-84
2021/05/01 09:33:23;;;;;;;14.30;13.00;;;;;;;14.69;63.29;94951.25;4992958;28;20724;-84
2021/05/01 09:35:53;;;;;;;12.83;11.70;;;;;;;14.79;64.23;94953.34;4993225;28;20203;-85
2021/05/01 09:38:20;;;;;;;13.20;12.00;;;;;;;14.88;63.91;94941.66;4993093;28;20261;-85
2021/05/01 09:40:48;;;;;;;12.13;11.03;;;;;;;14.81;63.70;94939.16;4992358;28;20270;-86
2021/05/01 09:43:15;;;;;;;12.60;11.50;;;;;;;14.84;63.58;94930.13;4992570;28;20200;-85
2021/05/01 09:45:41;;;;;;;12.33;11.23;;;;;;;14.90;63.16;94925.88;4993127;28;20192;-85
2021/05/01 09:48:15;;;;;;;12.47;11.37;;;;;;;14.92;62.81;94927.25;4993204;28;20210;-85
2021/05/01 09:50:42;;;;;;;12.03;10.93;;;;;;;14.79;62.79;94919.66;4992984;28;20293;-86
2021/05/01 09:53:11;;;;;;;12.53;11.30;;;;;;;14.62;62.68;94922.06;4993281;28;20331;-85
2021/05/01 09:56:12;;;;;;;23.10;20.70;;;;;;;14.46;63.45;94923.41;4992758;28;20208;-85
2021/05/01 09:59:07;;;;;;;19.70;17.80;;;;;;;14.57;63.24;94918.53;4994906;28;20227;-85
2021/05/01 10:01:37;;;;;;;11.03;10.07;;;;;;;14.63;62.96;94920.22;4995952;28;20926;-86
2021/05/01 10:04:20;;;;;;;11.27;10.17;;;;;;;14.70;62.72;94913.97;4995037;28;20207;-86
2021/05/01 10:06:51;;;;;;;11.63;10.63;;;;;;;14.46;62.76;94917.44;4993785;28;20203;-85
2021/05/01 10:09:25;;;;;;;11.77;10.70;;;;;;;14.47;63.21;94924.19;4991919;28;20200;-85
2021/05/01 10:12:06;;;;;;;11.90;10.80;;;;;;;14.26;63.01;94930.56;4981402;28;20238;-86
2021/05/01 10:14:40;;;;;;;13.27;11.87;;;;;;;14.25;64.89;94930.78;4992153;28;20605;-85
2021/05/01 10:17:06;;;;;;;12.57;11.37;;;;;;;14.31;66.02;94935.91;4992099;28;20227;-85
2021/05/01 10:19:52;;;;;;;11.90;10.80;;;;;;;14.34;63.95;94929.50;4992025;28;20207;-86
2021/05/01 10:22:34;;;;;;;11.77;10.67;;;;;;;14.43;63.52;94918.66;4992447;28;20232;-85
2021/05/01 10:25:05;;;;;;;12.27;11.17;;;;;;;14.46;63.51;94917.44;4992265;28;20645;-84
2021/05/01 10:27:43;;;;;;;11.90;10.87;;;;;;;14.58;63.42;94914.91;4992751;28;20206;-85
2021/05/01 10:30:27;;;;;;;47.17;42.47;;;;;;;14.63;63.83;94915.03;4992980;28;20199;-86
2021/05/01 10:32:57;;;;;;;19.10;17.43;;;;;;;14.55;64.65;94913.56;4994354;28;20207;-85
2021/05/01 10:35:23;;;;;;;14.60;13.20;;;;;;;14.57;65.46;94914.13;4993719;28;20257;-85
2021/05/01 10:38:00;;;;;;;15.00;13.60;;;;;;;14.56;64.45;94916.94;4992703;28;20254;-85
2021/05/01 10:40:41;;;;;;;12.40;11.20;;;;;;;14.46;64.03;94915.63;4992143;28;20203;-85
2021/05/01 10:43:14;;;;;;;13.07;11.97;;;;;;;14.56;64.04;94906.56;4992632;28;20292;-85
2021/05/01 10:45:47;;;;;;;12.30;11.13;;;;;;;14.63;64.31;94907.25;4992122;28;20207;-85
2021/05/01 10:48:13;;;;;;;12.13;10.93;;;;;;;14.68;64.64;94907.41;4991704;28;20256;-85
2021/05/01 10:50:39;;;;;;;12.47;11.37;;;;;;;14.77;64.06;94900.94;4991347;28;20219;-85
2021/05/01 10:53:19;;;;;;;11.83;10.73;;;;;;;14.85;64.20;94893.63;4992212;28;20207;-85
2021/05/01 10:55:48;;;;;;;11.77;10.67;;;;;;;15.01;63.34;94896.63;4991745;28;20206;-85
2021/05/01 10:58:29;;;;;;;11.47;10.40;;;;;;;14.99;63.63;94890.88;4991673;28;20690;-84
2021/05/01 11:00:56;;;;;;;12.47;11.30;;;;;;;14.92;63.47;94896.16;4991490;28;20246;-84
2021/05/01 11:03:23;;;;;;;11.97;10.87;;;;;;;14.77;63.54;94886.19;4991625;28;20195;-85
2021/05/01 11:05:53;;;;;;;21.63;19.43;;;;;;;14.84;63.42;94888.66;4992054;28;20214;-85
2021/05/01 11:08:32;;;;;;;18.37;16.67;;;;;;;14.78;64.14;94889.56;4991402;28;20203;-85
2021/05/01 11:10:59;;;;;;;13.30;12.10;;;;;;;14.76;63.56;94884.59;4993346;28;20289;-85
2021/05/01 11:13:26;;;;;;;13.97;12.67;;;;;;;14.58;63.73;94889.00;4996782;28;20210;-85
2021/05/01 11:16:27;;;;;;;13.87;12.67;;;;;;;14.40;64.25;94897.56;4997140;28;20209;-86
2021/05/01 11:18:59;;;;;;;13.60;12.40;;;;;;;14.34;64.92;94895.84;4997338;28;20207;-84
2021/05/01 11:21:31;;;;;;;14.20;12.90;;;;;;;14.41;64.46;94888.81;4996959;28;20228;-86